Stormwatcher's Retreat Logo




                  Temp     Hi    Low   Out    Dew  Wind  Wind   Wind    Hi    Hi   Wind   Heat    THW   THSW                Rain  Solar   Solar Hi Solar   UV    UV    Hi     Heat    Cool    In     In    In     In     In   In Air          Wind  Wind    ISS   Arc.
  Date    Time     Out   Temp   Temp   Hum    Pt. Speed   Dir    Run Speed   Dir  Chill  Index  Index  Index   Bar    Rain  Rate   Rad.  Energy    Rad.  Index  Dose   UV     D-D     D-D    Temp   Hum    Dew   Heat    EMC Density     ET   Samp   Tx   Recept  Int.
------------------------------------------------------------------------------------------------------------------------------------------------------------------------------------------------------------------------------------------------------------------------
 6/13/21 12:10a   60.7   60.8   60.7    96   59.6  19.0     N   3.17  28.0     N   54.2   61.2   54.7   53.3  29.862  0.01  0.07     0     0.00      0     0.0  0.00   0.0   0.030   0.000   73.7    55   56.5   73.8  10.08  .0731    0.000   203    7    100.0   10 
 6/13/21 12:20a   60.7   60.8   60.7    96   59.6  18.0     N   3.00  29.0     N   54.5   61.2   55.0   53.6  29.866  0.02  0.11     0     0.00      0     0.0  0.00   0.0   0.030   0.000   73.6    55   56.4   73.7  10.08  .0731    0.000   203    7    100.0   10 
 6/13/21 12:30a   60.6   60.7   60.6    96   59.5  18.0     N   3.00  25.0     N   54.4   61.1   54.9   53.5  29.866  0.01  0.14     0     0.00      0     0.0  0.00   0.0   0.031   0.000   73.6    55   56.4   73.7  10.08  .0731    0.000   201    7    100.0   10 
 6/13/21 12:40a   60.7   60.7   60.5    97   59.8  17.0     N   2.83  28.0     N   54.7   61.3   55.3   53.8  29.864  0.00  0.04     0     0.00      0     0.0  0.00   0.0   0.030   0.000   73.5    55   56.3   73.6  10.08  .0732    0.000   202    7    100.0   10 
 6/13/21 12:50a   60.8   60.9   60.6    97   59.9  16.0     N   2.67  27.0   SSE   55.2   61.4   55.8   54.3  29.863  0.01  0.04     0     0.00      0     0.0  0.00   0.0   0.029   0.000   73.5    55   56.3   73.6  10.08  .0732    0.000   203    7    100.0   10 
 6/13/21  1:00a   61.0   61.0   60.8    97   60.1  16.0     N   2.67  28.0     N   55.4   61.6   56.0   54.6  29.861  0.01  0.06     0     0.00      0     0.0  0.00   0.0   0.028   0.000   73.5    55   56.3   73.6  10.08  .0731    0.000   204    7    100.0   10 
 6/13/21  1:10a   61.2   61.2   61.0    97   60.3  15.0     N   2.50  23.0     N   55.9   61.8   56.5   55.0  29.860  0.01  0.06     0     0.00      0     0.0  0.00   0.0   0.026   0.000   73.4    55   56.2   73.5  10.08  .0732    0.000   202    7    100.0   10 
 6/13/21  1:20a   61.0   61.2   61.0    96   59.9  15.0     N   2.50  24.0     N   55.7   61.5   56.2   54.6  29.862  0.01  0.06     0     0.00      0     0.0  0.00   0.0   0.028   0.000   73.4    55   56.2   73.5  10.08  .0732    0.000   203    7    100.0   10 
 6/13/21  1:30a   60.6   61.1   60.6    97   59.7  14.0     N   2.33  22.0     N   55.6   61.1   56.1   54.5  29.859  0.01  0.05     0     0.00      0     0.0  0.00   0.0   0.031   0.000   73.4    55   56.2   73.5  10.08  .0732    0.000   200    7    100.0   10 
 6/13/21  1:40a   59.8   60.6   59.8    96   58.7  11.0     N   1.83  17.0     N   56.1   60.2   56.5   54.7  29.859  0.01  0.14     0     0.00      0     0.0  0.00   0.0   0.036   0.000   73.4    55   56.2   73.5  10.08  .0732    0.000   202    7    100.0   10 
 6/13/21  1:50a   59.6   59.9   59.6    97   58.7   9.0     N   1.50  14.0     N   57.2   60.1   57.7   55.8  29.851  0.01  0.07     0     0.00      0     0.0  0.00   0.0   0.038   0.000   73.4    55   56.2   73.5  10.08  .0731    0.000   202    7    100.0   10 
 6/13/21  2:00a   59.3   59.8   59.3    97   58.4   9.0     N   1.50  16.0     N   56.9   59.8   57.4   55.5  29.849  0.01  0.06     0     0.00      0     0.0  0.00   0.0   0.040   0.000   73.3    55   56.2   73.4  10.08  .0732    0.000   201    7    100.0   10 
 6/13/21  2:10a   59.2   59.6   59.2    97   58.3   9.0     N   1.50  14.0     N   56.7   59.6   57.1   55.2  29.852  0.00  0.04     0     0.00      0     0.0  0.00   0.0   0.040   0.000   73.3    55   56.2   73.4  10.08  .0732    0.000   204    7    100.0   10 
 6/13/21  2:20a   58.9   59.2   58.9    97   58.1   7.0     N   1.17  11.0     N   57.9   59.3   58.3   56.2  29.856  0.02  0.09     0     0.00      0     0.0  0.00   0.0   0.042   0.000   73.3    55   56.2   73.4  10.08  .0732    0.000   202    7    100.0   10 
 6/13/21  2:30a   59.3   59.3   58.9    97   58.4   6.0   SSW   1.00  13.0   SSE   58.8   59.8   59.3   57.2  29.855  0.00  0.05     0     0.00      0     0.0  0.00   0.0   0.040   0.000   73.2    55   56.1   73.2  10.09  .0732    0.000   199    7    100.0   10 
 6/13/21  2:40a   59.6   59.6   59.2    98   59.0   5.0     S   0.83  10.0     N   59.5   60.1   60.0   57.9  29.857  0.01  0.05     0     0.00      0     0.0  0.00   0.0   0.038   0.000   73.2    55   56.1   73.2  10.09  .0732    0.000   203    7    100.0   10 
 6/13/21  2:50a   59.6   59.8   59.6    97   58.7   9.0     N   1.50  14.0     N   57.2   60.1   57.7   55.8  29.856  0.00  0.00     0     0.00      0     0.0  0.00   0.0   0.038   0.000   73.2    55   56.1   73.2  10.09  .0732    0.000   204    7    100.0   10 
 6/13/21  3:00a   59.4   59.7   59.4    97   58.5   8.0     N   1.33  12.0     N   57.8   59.9   58.3   56.3  29.857  0.01  0.00     0     0.00      0     0.0  0.00   0.0   0.039   0.000   73.2    55   56.1   73.2  10.09  .0732    0.000   203    7    100.0   10 
 6/13/21  3:10a   59.2   59.4   59.1    97   58.3   8.0     N   1.33  12.0     N   57.5   59.6   57.9   55.9  29.855  0.00  0.00     0     0.00      0     0.0  0.00   0.0   0.040   0.000   73.1    55   56.0   73.1  10.09  .0732    0.000   203    7    100.0   10 
 6/13/21  3:20a   59.1   59.2   59.1    98   58.5   8.0     N   1.33  13.0    SW   57.4   59.6   57.9   55.9  29.857  0.02  0.13     0     0.00      0     0.0  0.00   0.0   0.041   0.000   73.1    55   56.0   73.1  10.09  .0732    0.000   202    7    100.0   10 
 6/13/21  3:30a   59.0   59.1   58.9    98   58.4   6.0     N   1.00  11.0     N   58.4   59.5   58.9   56.8  29.857  0.02  0.25     0     0.00      0     0.0  0.00   0.0   0.042   0.000   73.1    55   56.0   73.1  10.09  .0732    0.000   203    7    100.0   10 
 6/13/21  3:40a   59.0   59.1   58.9    98   58.4   4.0     S   0.67  10.0     N   59.0   59.5   59.5   57.4  29.853  0.01  0.25     0     0.00      0     0.0  0.00   0.0   0.042   0.000   73.0    55   55.9   73.0  10.09  .0732    0.000   202    7    100.0   10 
 6/13/21  3:50a   59.5   59.5   58.9    98   58.9   9.0     N   1.50  16.0     N   57.1   60.0   57.6   55.7  29.850  0.01  0.11     0     0.00      0     0.0  0.00   0.0   0.038   0.000   73.0    55   55.9   73.0  10.09  .0732    0.000   199    7    100.0   10 
 6/13/21  4:00a   59.8   59.8   59.5    98   59.2   9.0     N   1.50  15.0     N   57.5   60.3   58.0   56.1  29.853  0.00  0.00     0     0.00      0     0.0  0.00   0.0   0.036   0.000   73.0    55   55.9   73.0  10.09  .0732    0.000   200    7    100.0   10 
 6/13/21  4:10a   59.4   59.8   59.4    98   58.8   8.0     N   1.33  14.0     N   57.8   59.9   58.3   56.3  29.851  0.01  0.00     0     0.00      0     0.0  0.00   0.0   0.039   0.000   72.9    55   55.8   72.9  10.09  .0732    0.000   204    7    100.0   10 
 6/13/21  4:20a   59.9   59.9   59.5    98   59.3   7.0     N   1.17  13.0     N   59.1   60.4   59.6   57.5  29.852  0.01  0.08     0     0.00      0     0.0  0.00   0.0   0.035   0.000   72.9    55   55.8   72.9  10.09  .0732    0.000   201    7    100.0   10 
 6/13/21  4:30a   59.3   59.9   59.3    97   58.4  10.0     N   1.67  15.0     N   56.2   59.8   56.7   54.9  29.857  0.00  0.04     0     0.00      0     0.0  0.00   0.0   0.040   0.000   72.9    55   55.8   72.9  10.09  .0732    0.000   204    7    100.0   10 
 6/13/21  4:40a   59.9   59.9   59.3    98   59.3  11.0     N   1.83  18.0     N   56.2   60.4   56.7   54.9  29.857  0.01  0.04     0     0.00      0     0.0  0.00   0.0   0.035   0.000   72.9    55   55.8   72.9  10.09  .0732    0.000   200    7    100.0   10 
 6/13/21  4:50a   59.8   59.9   59.7    98   59.2  11.0     N   1.83  17.0     N   56.1   60.3   56.6   54.8  29.853  0.01  0.15     0     0.00      0     0.0  0.00   0.0   0.036   0.000   72.8    55   55.7   72.7  10.09  .0732    0.000   201    7    100.0   10 
 6/13/21  5:00a   59.7   60.0   59.7    98   59.1  10.0     N   1.67  17.0     N   56.6   60.2   57.1   55.3  29.852  0.01  0.09     0     0.00      0     0.0  0.00   0.0   0.037   0.000   72.8    55   55.7   72.7  10.09  .0732    0.000   197    7     99.5   10 
 6/13/21  5:10a   59.7   59.9   59.7    98   59.1  10.0     N   1.67  16.0     N   56.6   60.2   57.1   55.3  29.851  0.00  0.00     0     0.00      0     0.0  0.00   0.0   0.037   0.000   72.8    55   55.7   72.7  10.09  .0732    0.000   203    7    100.0   10 
 6/13/21  5:20a   59.5   59.8   59.5    98   58.9  11.0     N   1.83  16.0     N   55.8   60.0   56.3   54.5  29.852  0.01  0.00     0     0.00      0     0.0  0.00   0.0   0.038   0.000   72.8    55   55.7   72.7  10.09  .0732    0.000   202    7    100.0   10 
 6/13/21  5:30a   60.0   60.0   59.5    98   59.4  12.0     N   2.00  18.0     N   55.8   60.5   56.3   54.6  29.854  0.00  0.00     0     0.00      0     0.0  0.00   0.0   0.035   0.000   72.8    55   55.7   72.7  10.09  .0733    0.000   201    7    100.0   10 
 6/13/21  5:40a   60.2   60.2   60.1    98   59.6  11.0     N   1.83  18.0     N   56.5   60.7   57.0   55.2  29.851  0.01  0.00     0     0.00      0     0.0  0.00   0.0   0.033   0.000   72.7    55   55.6   72.5  10.10  .0733    0.000   203    7    100.0   10 
 6/13/21  5:50a   60.0   60.3   60.0    98   59.4  11.0     N   1.83  18.0     N   56.3   60.5   56.8   55.0  29.854  0.00  0.00     1     0.01      5     0.0  0.00   0.0   0.035   0.000   72.7    55   55.6   72.5  10.10  .0733    0.000   202    7    100.0   10 
 6/13/21  6:00a   59.5   60.0   59.5    98   58.9   9.0     N   1.50  15.0     N   57.1   60.0   57.6   55.7  29.856  0.01  0.04     2     0.03      5     0.0  0.00   0.0   0.038   0.000   72.7    55   55.6   72.5  10.10  .0733    0.000   204    7    100.0   10 
 6/13/21  6:10a   59.3   59.5   59.2    98   58.7  10.0     N   1.67  15.0     N   56.2   59.8   56.7   54.9  29.859  0.01  0.05     4     0.06      5     0.0  0.00   0.0   0.040   0.000   72.7    55   55.6   72.5  10.10  .0733    0.000   203    7    100.0   10 
 6/13/21  6:20a   59.1   59.4   58.8    98   58.5   9.0     N   1.50  14.0     N   56.6   59.6   57.1   55.3  29.864  0.01  0.09     5     0.07      7     0.0  0.00   0.0   0.041   0.000   72.8    55   55.7   72.7  10.09  .0733    0.000   202    7    100.0   10 
 6/13/21  6:30a   59.6   59.6   59.1    98   59.0  10.0     N   1.67  20.0   SSW   56.5   60.1   57.0   55.4  29.864  0.02  0.12    10     0.14     14     0.0  0.00   0.0   0.038   0.000   72.8    55   55.7   72.7  10.09  .0733    0.000   204    7    100.0   10 
 6/13/21  6:40a   59.5   59.6   59.5    98   58.9  10.0     N   1.67  17.0     N   56.4   60.0   56.9   55.3  29.868  0.02  0.12    12     0.17     14     0.0  0.00   0.0   0.038   0.000   72.8    55   55.7   72.7  10.09  .0733    0.000   203    7    100.0   10 
 6/13/21  6:50a   59.3   59.5   59.3    98   58.7  10.0     N   1.67  15.0     S   56.2   59.8   56.7   55.3  29.864  0.01  0.12    21     0.30     26     0.0  0.00   0.0   0.040   0.000   72.8    55   55.7   72.7  10.09  .0733    0.000   200    7    100.0   10 
 6/13/21  7:00a   59.3   59.3   59.2    98   58.7   9.0     N   1.50  16.0     N   56.9   59.8   57.4   56.9  29.872  0.01  0.11    22     0.32     26     0.0  0.00   0.0   0.040   0.000   72.8    55   55.7   72.7  10.09  .0733    0.000   200    7    100.0   10 
 6/13/21  7:10a   59.1   59.3   59.1    98   58.5  10.0     N   1.67  16.0     N   55.9   59.6   56.4   55.5  29.872  0.00  0.00    16     0.23     19     0.0  0.00   0.0   0.041   0.000   72.8    55   55.7   72.7  10.09  .0733    0.000   202    7    100.0   10 
 6/13/21  7:20a   59.0   59.1   58.9    98   58.4   9.0     N   1.50  15.0     N   56.5   59.5   57.0   56.4  29.870  0.02  0.09    23     0.33     28     0.0  0.00   0.0   0.042   0.000   72.8    55   55.7   72.7  10.09  .0733    0.000   197    7     99.5   10 
 6/13/21  7:30a   58.9   59.0   58.9    98   58.3   8.0     N   1.33  14.0     N   57.2   59.4   57.7   57.2  29.871  0.00  0.05    27     0.39     33     0.0  0.00   0.0   0.042   0.000   72.9    55   55.8   72.9  10.09  .0733    0.000   202    7    100.0   10 
 6/13/21  7:40a   58.8   58.9   58.7    98   58.2   8.0     N   1.33  12.0     N   57.1   59.2   57.5   57.3  29.872  0.00  0.00    34     0.49     44     0.0  0.00   0.0   0.043   0.000   72.9    55   55.8   72.9  10.09  .0733    0.000   201    7    100.0   10 
 6/13/21  7:50a   58.7   58.8   58.6    98   58.1   8.0     N   1.33  13.0     N   56.9   59.1   57.3   57.6  29.871  0.01  0.00    47     0.67     51     0.0  0.00   0.0   0.044   0.000   72.9    55   55.8   72.9  10.09  .0733    0.000   203    7    100.0   10 
 6/13/21  8:00a   58.7   58.8   58.6    98   58.1   7.0     N   1.17  12.0     N   57.6   59.1   58.0   58.7  29.873  0.01  0.05    58     0.83     70     0.0  0.00   0.0   0.044   0.000   72.9    55   55.8   72.9  10.09  .0733    0.001   204    7    100.0   10 
 6/13/21  8:10a   58.7   58.7   58.6    98   58.1   8.0     N   1.33  13.0     N   56.9   59.1   57.3   57.9  29.877  0.01  0.05    60     0.86     79     0.0  0.00   0.0   0.044   0.000   73.0    55   55.9   73.0  10.09  .0733    0.000   203    7    100.0   10 
 6/13/21  8:20a   58.8   58.9   58.6    98   58.2   6.0     N   1.00  11.0     N   58.2   59.2   58.6   59.4  29.881  0.01  0.09    66     0.95     76     0.1  0.01   0.5   0.043   0.000   73.0    55   55.9   73.0  10.09  .0733    0.000   202    7    100.0   10 
 6/13/21  8:30a   58.9   59.0   58.8    98   58.3   7.0   SSW   1.17  14.0     N   57.9   59.4   58.4   60.3  29.879  0.00  0.04    98     1.40    123     0.6  0.04   0.7   0.042   0.000   73.0    55   55.9   73.0  10.09  .0733    0.000   203    7    100.0   10 
 6/13/21  8:40a   58.8   59.0   58.8    98   58.2   7.0   SSW   1.17  11.0     N   57.8   59.2   58.2   60.4  29.878  0.02  0.07   109     1.56    121     0.7  0.05   0.8   0.043   0.000   73.1    55   56.0   73.1  10.09  .0733    0.000   204    7    100.0   10 
 6/13/21  8:50a   58.9   59.0   58.8    98   58.3   6.0   SSW   1.00   9.0     N   58.3   59.4   58.8   61.9  29.879  0.01  0.07   141     2.02    149     0.8  0.06   0.9   0.042   0.000   73.1    55   56.0   73.1  10.09  .0733    0.000   200    7    100.0   10 
 6/13/21  9:00a   59.0   59.0   58.9    98   58.4   7.0     N   1.17  10.0     N   58.0   59.5   58.5   60.1  29.880  0.01  0.07   101     1.45    121     0.7  0.05   0.8   0.042   0.000   73.1    55   56.0   73.1  10.09  .0733    0.002   201    7    100.0   10 
 6/13/21  9:10a   59.1   59.1   58.9    98   58.5   5.0   SSW   0.83   8.0     N   58.9   59.6   59.4   61.7  29.879  0.01  0.08   124     1.78    132     0.9  0.06   0.9   0.041   0.000   73.1    55   56.0   73.1  10.09  .0733    0.000   202    7    100.0   10 
 6/13/21  9:20a   59.2   59.2   59.0    98   58.6   5.0   SSW   0.83   8.0     N   59.0   59.7   59.5   61.1  29.877  0.01  0.10   107     1.53    123     0.8  0.06   0.9   0.040   0.000   73.2    55   56.1   73.2  10.09  .0732    0.000   202    7    100.0   10 
 6/13/21  9:30a   59.3   59.4   59.2    98   58.7   5.0   SSW   0.83   9.0     N   59.2   59.8   59.7   61.8  29.875  0.01  0.06   127     1.82    137     1.0  0.07   1.1   0.040   0.000   73.2    55   56.1   73.2  10.09  .0732    0.000   202    7    100.0   10 
 6/13/21  9:40a   59.3   59.4   59.3    98   58.7   7.0   SSW   1.17  10.0   SSE   58.4   59.8   58.9   60.7  29.876  0.01  0.08   121     1.73    149     1.0  0.07   1.2   0.040   0.000   73.3    55   56.2   73.4  10.08  .0732    0.000   204    7    100.0   10 
 6/13/21  9:50a   59.0   59.3   59.0    98   58.4   9.0     N   1.50  12.0     N   56.5   59.5   57.0   57.8  29.875  0.00  0.00    94     1.35    113     0.8  0.06   1.0   0.042   0.000   73.2    55   56.1   73.2  10.09  .0732    0.000   204    7    100.0   10 
 6/13/21 10:00a   59.0   59.1   58.9    98   58.4   8.0     N   1.33  11.0     N   57.3   59.5   57.8   59.8  29.875  0.02  0.08   137     1.96    158     1.2  0.09   1.3   0.042   0.000   73.2    55   56.1   73.2  10.09  .0732    0.002   201    7    100.0   10 
 6/13/21 10:10a   58.9   58.9   58.8    98   58.3   9.0     N   1.50  12.0     N   56.4   59.4   56.9   57.6  29.877  0.00  0.05    94     1.35    113     0.9  0.06   1.1   0.042   0.000   73.3    55   56.2   73.4  10.08  .0732    0.000   198    7    100.0   10 
 6/13/21 10:20a   58.8   58.9   58.8    98   58.2   7.0     N   1.17  12.0     N   57.8   59.2   58.2   59.8  29.877  0.01  0.05   123     1.76    137     1.2  0.09   1.3   0.043   0.000   73.3    55   56.2   73.4  10.08  .0732    0.000   203    7    100.0   10 
 6/13/21 10:30a   58.9   59.0   58.8    98   58.3   7.0   SSW   1.17  10.0     N   57.9   59.4   58.4   60.2  29.875  0.01  0.09   135     1.94    139     1.3  0.09   1.3   0.042   0.000   73.3    55   56.2   73.4  10.08  .0732    0.000   199    7    100.0   10 
 6/13/21 10:40a   59.2   59.2   58.9    98   58.6   8.0     N   1.33  12.0     N   57.5   59.7   58.0   59.4  29.876  0.02  0.10   127     1.82    130     1.2  0.09   1.2   0.040   0.000   73.4    55   56.2   73.5  10.08  .0732    0.000   202    7    100.0   10 
 6/13/21 10:50a   59.2   59.3   59.2    98   58.6   7.0     N   1.17  11.0     N   58.2   59.7   58.7   59.9  29.875  0.01  0.10   114     1.63    121     1.1  0.08   1.2   0.040   0.000   73.4    55   56.2   73.5  10.08  .0732    0.000   202    7    100.0   10 
 6/13/21 11:00a   59.1   59.3   59.1    98   58.5   8.0     N   1.33  11.0     N   57.4   59.6   57.9   59.3  29.880  0.02  0.11   128     1.83    137     1.3  0.09   1.4   0.041   0.000   73.4    55   56.2   73.5  10.08  .0732    0.003   201    7    100.0   10 
 6/13/21 11:10a   58.9   59.2   58.9    98   58.3   8.0     N   1.33  13.0     N   57.2   59.4   57.7   59.1  29.885  0.02  0.14   131     1.88    141     1.3  0.09   1.4   0.042   0.000   73.5    55   56.3   73.6  10.08  .0732    0.000   204    7    100.0   10 
 6/13/21 11:20a   59.0   59.0   58.8    98   58.4   7.0     N   1.17  11.0     N   58.0   59.5   58.5   60.3  29.885  0.02  0.20   144     2.06    162     1.5  0.11   1.6   0.042   0.000   73.5    55   56.3   73.6  10.08  .0732    0.000   204    7    100.0   10 
 6/13/21 11:30a   59.0   59.1   58.9    98   58.4   7.0   SSW   1.17  11.0     N   58.0   59.5   58.5   61.4  29.882  0.01  0.13   190     2.72    250     1.9  0.14   2.4   0.042   0.000   73.6    55   56.4   73.7  10.08  .0732    0.000   204    7    100.0   10 
 6/13/21 11:40a   59.1   59.2   59.0    99   58.8   6.0   SSW   1.00   9.0   SSW   58.5   59.6   59.0   62.3  29.885  0.01  0.10   206     2.95    244     2.1  0.15   2.4   0.041   0.000   73.6    55   56.4   73.7  10.08  .0732    0.000   202    7    100.0   10 
 6/13/21 11:50a   58.9   59.2   58.8    98   58.3   7.0     N   1.17  10.0     N   57.9   59.4   58.4   60.6  29.890  0.01  0.06   161     2.31    183     1.8  0.13   2.0   0.042   0.000   73.7    55   56.5   73.8  10.08  .0732    0.000   202    7    100.0   10 
 6/13/21 12:00p   58.7   58.9   58.7    98   58.1   9.0     N   1.50  13.0     N   56.1   59.1   56.5   58.8  29.894  0.03  0.24   174     2.49    206     1.9  0.14   2.1   0.044   0.000   73.7    55   56.5   73.8  10.08  .0732    0.003   204    7    100.0   10 
 6/13/21 12:10p   58.6   58.8   58.6    98   58.0  10.0     N   1.67  15.0     N   55.3   59.0   55.7   58.1  29.899  0.02  0.29   186     2.67    200     2.1  0.15   2.2   0.044   0.000   73.8    55   56.6   74.0  10.07  .0732    0.000   204    7    100.0   10 
 6/13/21 12:20p   58.6   58.7   58.6    99   58.3  10.0     N   1.67  14.0     N   55.3   59.0   55.7   57.7  29.902  0.02  0.11   170     2.44    179     1.9  0.14   2.0   0.044   0.000   73.8    55   56.6   74.0  10.07  .0732    0.000   200    7    100.0   10 
 6/13/21 12:30p   58.7   58.8   58.6    99   58.4   7.0     N   1.17  12.0     N   57.6   59.2   58.1   61.1  29.903  0.02  0.28   195     2.80    260     2.2  0.16   2.9   0.044   0.000   73.8    55   56.6   74.0  10.07  .0732    0.000   200    7    100.0   10 
 6/13/21 12:40p   59.0   59.1   58.7    98   58.4   5.0     S   0.83   9.0     N   58.8   59.5   59.3   63.3  29.898  0.01  0.17   242     3.47    278     2.7  0.19   3.0   0.042   0.000   73.8    55   56.6   74.0  10.07  .0732    0.000   204    7    100.0   10 
 6/13/21 12:50p   59.1   59.1   59.0    99   58.8   2.0     S   0.33   5.0     S   59.1   59.6   59.6   61.9  29.895  0.01  0.08   169     2.42    192     1.9  0.14   2.2   0.041   0.000   73.8    55   56.6   74.0  10.07  .0732    0.000   200    7    100.0   10 
 6/13/21  1:00p   59.2   59.2   59.1    99   58.9   1.0     S   0.17   3.0    SW   59.2   59.7   59.7   61.5  29.894  0.01  0.09   149     2.14    153     1.7  0.12   1.8   0.040   0.000   73.8    55   56.6   74.0  10.07  .0732    0.004   203    7    100.0   10 
 6/13/21  1:10p   58.7   59.2   58.7    98   58.1   4.0     N   0.67   9.0     N   58.7   59.1   59.1   60.4  29.902  0.00  0.00   127     1.82    137     1.5  0.11   1.6   0.044   0.000   73.8    55   56.6   74.0  10.07  .0732    0.000   204    7    100.0   10 
 6/13/21  1:20p   58.6   58.7   58.5    98   58.0   4.0     S   0.67   9.0     N   58.6   59.0   59.0   60.3  29.894  0.02  0.09   128     1.83    141     1.5  0.11   1.6   0.044   0.000   73.8    55   56.6   74.0  10.07  .0732    0.000   202    7    100.0   10 
 6/13/21  1:30p   58.8   58.8   58.5    99   58.5   1.0     S   0.17   4.0   SSW   58.8   59.3   59.3   60.5  29.895  0.01  0.09   125     1.79    139     1.4  0.10   1.5   0.043   0.000   73.8    55   56.6   74.0  10.07  .0732    0.000   199    7    100.0   10 
 6/13/21  1:40p   58.4   58.8   58.4    98   57.8   6.0     N   1.00  10.0     S   57.7   58.8   58.1   59.8  29.897  0.01  0.09   146     2.09    178     1.5  0.11   1.9   0.046   0.000   73.9    55   56.7   74.1  10.07  .0732    0.000   203    7    100.0   10 
 6/13/21  1:50p   58.0   58.4   58.0    98   57.4   7.0     N   1.17  11.0     N   56.8   58.4   57.2   59.6  29.903  0.00  0.04   173     2.48    199     1.9  0.14   2.1   0.049   0.000   73.9    55   56.7   74.1  10.07  .0732    0.000   200    7    100.0   10 
 6/13/21  2:00p   58.0   58.0   57.8    99   57.7   7.0     N   1.17  11.0     N   56.8   58.4   57.2   57.9  29.907  0.01  0.04   104     1.49    142     1.2  0.09   1.5   0.049   0.000   74.0    55   56.8   74.2  10.07  .0732    0.003   202    7    100.0   10 
 6/13/21  2:10p   58.1   58.2   58.0    99   57.8  10.0     N   1.67  18.0     N   54.7   58.5   55.1   56.2  29.915  0.02  0.09   125     1.79    135     1.3  0.09   1.4   0.048   0.000   74.0    55   56.8   74.2  10.07  .0732    0.000   200    7    100.0   10 
 6/13/21  2:20p   57.8   58.2   57.8    98   57.2  12.0     N   2.00  18.0     N   53.3   58.2   53.7   54.0  29.923  0.01  0.20    91     1.30    109     1.0  0.07   1.1   0.050   0.000   74.0    55   56.8   74.2  10.07  .0732    0.000   204    7    100.0   10 
 6/13/21  2:30p   58.1   58.1   57.8    99   57.8  10.0     N   1.67  15.0     N   54.7   58.5   55.1   55.9  29.927  0.02  0.10   111     1.59    121     1.1  0.08   1.3   0.048   0.000   74.0    55   56.8   74.2  10.07  .0732    0.000   200    7    100.0   10 
 6/13/21  2:40p   58.4   58.4   58.1    99   58.1   7.0     N   1.17  13.0     N   57.3   58.8   57.7   59.4  29.925  0.01  0.11   144     2.06    160     1.4  0.10   1.6   0.046   0.000   74.0    55   56.8   74.2  10.07  .0732    0.000   203    7    100.0   10 
 6/13/21  2:50p   58.4   58.6   58.4    98   57.8   7.0     N   1.17  16.0     N   57.3   58.8   57.7   59.5  29.929  0.01  0.09   150     2.15    169     1.5  0.11   1.6   0.046   0.000   74.0    55   56.8   74.2  10.07  .0732    0.000   204    7    100.0   10 
 6/13/21  3:00p   58.5   58.5   58.3    99   58.2   8.0     N   1.33  15.0     N   56.7   58.9   57.1   59.9  29.926  0.00  0.04   196     2.81    218     1.9  0.14   2.0   0.045   0.000   74.1    55   56.9   74.3  10.07  .0732    0.003   202    7    100.0   10 
 6/13/21  3:10p   58.4   58.6   58.3    99   58.1   6.0     N   1.00  13.0     N   57.7   58.8   58.1   59.7  29.912  0.00  0.00   136     1.95    169     1.4  0.10   1.7   0.046   0.000   74.1    55   56.9   74.3  10.07  .0732    0.000   204    7    100.0   10 
 6/13/21  3:20p   58.8   58.8   58.4    99   58.5   3.0     S   0.50  10.0     N   58.8   59.3   59.3   60.3  29.932  0.00  0.00   114     1.63    130     1.1  0.08   1.2   0.043   0.000   74.1    55   56.9   74.3  10.07  .0732    0.000   202    7    100.0   10 
 6/13/21  3:30p   57.9   58.8   57.9    98   57.3   9.0     N   1.50  15.0   SSE   55.2   58.3   55.6   56.8  29.927  0.01  0.00   125     1.79    148     1.1  0.08   1.3   0.049   0.000   74.1    55   56.9   74.3  10.07  .0732    0.000   199    7    100.0   10 
 6/13/21  3:40p   58.0   58.0   57.8    99   57.7   9.0     N   1.50  15.0     N   55.3   58.4   55.7   57.5  29.934  0.00  0.00   150     2.15    156     1.3  0.09   1.3   0.049   0.000   74.1    55   56.9   74.3  10.07  .0732    0.000   202    7    100.0   10 
 6/13/21  3:50p   58.0   58.2   58.0    98   57.4   6.0     N   1.00  14.0     N   57.2   58.4   57.6   59.3  29.930  0.01  0.00   137     1.96    174     1.2  0.09   1.4   0.049   0.000   74.2    55   57.0   74.5  10.07  .0732    0.000   201    7    100.0   10 
 6/13/21  4:00p   58.2   58.2   58.0    99   57.9  13.0     N   2.17  20.0     N   53.2   58.6   53.6   56.0  29.944  0.00  0.00   183     2.62    202     1.5  0.11   1.6   0.047   0.000   74.2    55   57.0   74.5  10.07  .0732    0.003   200    7    100.0   10 
 6/13/21  4:10p   58.0   58.3   58.0    98   57.4  10.0     N   1.67  15.0     N   54.6   58.4   55.0   56.9  29.940  0.00  0.00   151     2.16    169     1.2  0.09   1.4   0.049   0.000   74.2    55   57.0   74.5  10.07  .0732    0.000   204    7    100.0   10 
 6/13/21  4:20p   58.1   58.1   58.0    99   57.8   7.0     N   1.17  13.0     N   56.9   58.5   57.3   58.4  29.942  0.00  0.00   109     1.56    141     0.9  0.06   1.1   0.048   0.000   74.2    55   57.0   74.5  10.07  .0732    0.000   200    7    100.0   10 
 6/13/21  4:30p   58.2   58.3   58.0    98   57.6   7.0     N   1.17  13.0     N   57.0   58.6   57.4   59.2  29.935  0.00  0.00   133     1.91    141     1.1  0.08   1.1   0.047   0.000   74.2    55   57.0   74.5  10.07  .0732    0.000   201    7    100.0   10 
 6/13/21  4:40p   58.2   58.3   58.1    99   57.9   9.0     N   1.50  15.0     N   55.5   58.6   55.9   59.6  29.939  0.00  0.00   212     3.04    264     1.4  0.10   1.8   0.047   0.000   74.3    55   57.1   74.6  10.06  .0732    0.000   199    7    100.0   10 
 6/13/21  4:50p   58.2   58.3   58.1    99   57.9  11.0     N   1.83  15.0     N   54.2   58.6   54.6   58.6  29.940  0.00  0.00   237     3.40    243     1.7  0.12   1.8   0.047   0.000   74.2    55   57.0   74.5  10.07  .0732    0.000   199    7    100.0   10 
 6/13/21  5:00p   58.4   58.4   58.2    98   57.8   9.0     N   1.50  14.0     N   55.8   58.8   56.2   60.9  29.939  0.00  0.00   252     3.61    320     1.7  0.12   1.8   0.046   0.000   74.1    55   56.9   74.3  10.07  .0732    0.004   203    7    100.0   10 
 6/13/21  5:10p   58.4   58.4   58.3    98   57.8   9.0     N   1.50  13.0     N   55.8   58.8   56.2   59.9  29.930  0.00  0.00   197     2.82    202     1.4  0.10   1.4   0.046   0.000   74.0    55   56.8   74.2  10.07  .0732    0.000   203    7    100.0   10 
 6/13/21  5:20p   58.7   58.8   58.3    99   58.4   7.0     N   1.17  11.0     N   57.6   59.2   58.1   61.9  29.932  0.00  0.00   188     2.70    223     1.2  0.09   1.4   0.044   0.000   74.0    55   56.8   74.2  10.07  .0732    0.000   204    7    100.0   10 
 6/13/21  5:30p   58.6   58.7   58.6    99   58.3   8.0     N   1.33  14.0     N   56.8   59.0   57.2   59.8  29.929  0.00  0.00   141     2.02    165     0.9  0.06   1.0   0.044   0.000   73.9    55   56.7   74.1  10.07  .0732    0.000   204    7    100.0   10 
 6/13/21  5:40p   58.4   58.6   58.4    98   57.8   5.0   SSW   0.83  11.0     N   58.1   58.8   58.5   61.3  29.916  0.00  0.00   140     2.01    146     0.8  0.06   0.8   0.046   0.000   73.8    55   56.6   74.0  10.07  .0732    0.000   203    7    100.0   10 
 6/13/21  5:50p   58.6   58.6   58.4    98   58.0   6.0     N   1.00  13.0     N   57.9   59.0   58.3   61.2  29.928  0.00  0.00   138     1.98    155     0.7  0.05   0.8   0.044   0.000   73.8    55   56.6   74.0  10.07  .0733    0.000   203    7    100.0   10 
 6/13/21  6:00p   58.1   58.6   58.1    98   57.5   8.0     N   1.33  12.0     N   56.2   58.5   56.6   57.8  29.926  0.00  0.00    89     1.28    107     0.3  0.02   0.6   0.048   0.000   73.8    55   56.6   74.0  10.07  .0733    0.003   200    7    100.0   10 
 6/13/21  6:10p   58.0   58.2   58.0    98   57.4   9.0     N   1.50  14.0     N   55.3   58.4   55.7   57.7  29.929  0.00  0.00   110     1.58    128     0.5  0.04   0.6   0.049   0.000   73.7    55   56.5   73.8  10.08  .0733    0.000   204    7    100.0   10 
 6/13/21  6:20p   58.1   58.1   58.0    99   57.8  10.0     N   1.67  16.0     N   54.7   58.5   55.1   55.7  29.943  0.00  0.00    66     0.95     93     0.1  0.01   0.6   0.048   0.000   73.7    55   56.5   73.8  10.08  .0733    0.000   204    7    100.0   10 
 6/13/21  6:30p   57.9   58.1   57.9    98   57.3  10.0     N   1.67  15.0     N   54.5   58.3   54.9   54.7  29.943  0.00  0.00    42     0.60     46     0.0  0.00   0.0   0.049   0.000   73.6    55   56.4   73.7  10.08  .0733    0.000   201    7    100.0   10 
 6/13/21  6:40p   58.0   58.0   57.8    99   57.7   8.0     N   1.33  15.0     N   56.1   58.4   56.5   56.2  29.938  0.00  0.00    38     0.54     42     0.0  0.00   0.0   0.049   0.000   73.6    55   56.4   73.7  10.08  .0733    0.000   202    7    100.0   10 
 6/13/21  6:50p   58.1   58.1   57.9    99   57.8   3.0     S   0.50   6.0   SSW   58.1   58.5   58.5   59.0  29.929  0.00  0.00    55     0.79     69     0.0  0.00   0.0   0.048   0.000   73.7    55   56.5   73.8  10.08  .0733    0.000   203    7    100.0   10 
 6/13/21  7:00p   58.2   58.2   58.1    99   57.9   5.0     S   0.83   8.0     N   57.8   58.6   58.2   57.8  29.933  0.00  0.00    32     0.46     46     0.0  0.00   0.0   0.047   0.000   73.8    55   56.6   74.0  10.07  .0733    0.001   200    7    100.0   10 
 6/13/21  7:10p   58.1   58.2   58.1    99   57.8   7.0     N   1.17  11.0     N   56.9   58.5   57.3   58.0  29.934  0.00  0.00    54     0.77     65     0.0  0.00   0.0   0.048   0.000   73.8    55   56.6   74.0  10.07  .0733    0.000   198    7    100.0   10 
 6/13/21  7:20p   58.0   58.1   58.0    98   57.4   5.0     N   0.83  10.0     N   57.6   58.4   58.0   57.8  29.921  0.00  0.00    34     0.49     47     0.0  0.00   0.0   0.049   0.000   73.8    55   56.6   74.0  10.07  .0732    0.000   202    7    100.0   10 
 6/13/21  7:30p   58.0   58.1   58.0    99   57.7   3.0   SSW   0.50   6.0     N   58.0   58.4   58.4   57.8  29.931  0.00  0.00    24     0.34     32     0.0  0.00   0.0   0.049   0.000   73.9    55   56.7   74.1  10.07  .0733    0.000   201    7    100.0   10 
 6/13/21  7:40p   58.0   58.2   58.0    98   57.4   7.0     N   1.17  12.0     N   56.8   58.4   57.2   56.5  29.941  0.00  0.00    21     0.30     23     0.0  0.00   0.0   0.049   0.000   73.9    55   56.7   74.1  10.07  .0733    0.000   203    7    100.0   10 
 6/13/21  7:50p   57.8   58.0   57.8    98   57.2  10.0     N   1.67  18.0     N   54.4   58.2   54.8   53.1  29.947  0.00  0.00    14     0.20     16     0.0  0.00   0.0   0.050   0.000   73.8    56   57.1   74.1  10.27  .0733    0.000   203    7    100.0   10 
 6/13/21  8:00p   57.8   57.9   57.7    98   57.2   7.0     N   1.17  16.0     N   56.6   58.2   57.0   55.1  29.939  0.00  0.00    12     0.17     12     0.0  0.00   0.0   0.050   0.000   73.7    56   57.0   73.9  10.28  .0733    0.001   201    7    100.0   10 
 6/13/21  8:10p   58.1   58.1   57.8    99   57.8   4.0     E   0.67  10.0     N   58.1   58.5   58.5   56.6  29.911  0.00  0.00    11     0.16     12     0.0  0.00   0.0   0.048   0.000   73.7    56   57.0   73.9  10.28  .0732    0.000   202    7    100.0   10 
 6/13/21  8:20p   58.1   58.1   58.0    98   57.5   1.0     E   0.17   3.0   ESE   58.1   58.5   58.5   56.4  29.938  0.00  0.00     5     0.07      7     0.0  0.00   0.0   0.048   0.000   73.7    56   57.0   73.9  10.28  .0733    0.000   201    7    100.0   10 
 6/13/21  8:30p   58.1   58.2   58.1    98   57.5   1.0     S   0.17   4.0   SSE   58.1   58.5   58.5   56.5  29.927  0.00  0.00     6     0.09      9     0.0  0.00   0.0   0.048   0.000   73.6    56   56.9   73.8  10.28  .0733    0.000   203    7    100.0   10 
 6/13/21  8:40p   58.1   58.2   58.1    98   57.5   3.0     N   0.50   7.0     S   58.1   58.5   58.5   56.5  29.944  0.00  0.00     6     0.09      7     0.0  0.00   0.0   0.048   0.000   73.6    56   56.9   73.8  10.28  .0733    0.000   199    7    100.0   10 
 6/13/21  8:50p   58.0   58.1   58.0    98   57.4   4.0     S   0.67  10.0     N   58.0   58.4   58.4   56.3  29.945  0.00  0.00     2     0.03      5     0.0  0.00   0.0   0.049   0.000   73.6    56   56.9   73.8  10.28  .0733    0.000   204    7    100.0   10 
 6/13/21  9:00p   57.9   58.0   57.8    98   57.3   6.0     N   1.00  10.0     N   57.1   58.3   57.5   55.5  29.946  0.00  0.00     9     0.13     16     0.0  0.00   0.0   0.049   0.000   73.6    56   56.9   73.8  10.28  .0733    0.000   202    7    100.0   10 
 6/13/21  9:10p   57.9   57.9   57.8    99   57.6   5.0     N   0.83  10.0     N   57.5   58.3   57.9   55.8  29.933  0.00  0.00     5     0.07     14     0.0  0.00   0.0   0.049   0.000   73.5    56   56.8   73.7  10.28  .0733    0.000   202    7    100.0   10 
 6/13/21  9:20p   57.8   57.9   57.8    98   57.2   8.0     N   1.33  11.0     N   55.9   58.2   56.3   54.2  29.941  0.00  0.00     0     0.00      0     0.0  0.00   0.0   0.050   0.000   73.4    56   56.7   73.6  10.28  .0733    0.000   202    7    100.0   10 
 6/13/21  9:30p   57.8   57.9   57.8    98   57.2   6.0     N   1.00  11.0     N   57.0   58.2   57.4   55.2  29.948  0.00  0.00     0     0.00      0     0.0  0.00   0.0   0.050   0.000   73.3    56   56.7   73.4  10.28  .0734    0.000   203    7    100.0   10 
 6/13/21  9:40p   57.8   57.8   57.8    98   57.2   6.0     N   1.00  11.0     N   57.0   58.2   57.4   55.2  29.959  0.00  0.00     0     0.00      0     0.0  0.00   0.0   0.050   0.000   73.3    56   56.7   73.4  10.28  .0734    0.000   202    7    100.0   10 
 6/13/21  9:50p   58.0   58.0   57.8    99   57.7   8.0     N   1.33  11.0     N   56.1   58.4   56.5   54.4  29.959  0.00  0.00     0     0.00      0     0.0  0.00   0.0   0.049   0.000   73.3    56   56.7   73.4  10.28  .0734    0.000   204    7    100.0   10 
 6/13/21 10:00p   57.8   58.1   57.8    98   57.2   6.0     N   1.00   9.0     N   57.0   58.2   57.4   55.2  29.959  0.00  0.00     0     0.00      0     0.0  0.00   0.0   0.050   0.000   73.2    56   56.6   73.3  10.29  .0734    0.000   204    7    100.0   10 
 6/13/21 10:10p   57.7   57.8   57.7    98   57.1   6.0     N   1.00  10.0     N   56.8   58.0   57.1   54.9  29.957  0.00  0.00     0     0.00      0     0.0  0.00   0.0   0.051   0.000   73.2    56   56.6   73.3  10.29  .0734    0.000   204    7    100.0   10 
 6/13/21 10:20p   57.7   57.7   57.6    98   57.1   5.0     N   0.83   9.0     N   57.2   58.0   57.5   55.3  29.955  0.00  0.00     0     0.00      0     0.0  0.00   0.0   0.051   0.000   73.2    56   56.6   73.3  10.29  .0734    0.000   204    7    100.0   10 
 6/13/21 10:30p   57.8   58.0   57.7    98   57.2   5.0     N   0.83  10.0   SSW   57.4   58.2   57.8   55.6  29.953  0.00  0.00     0     0.00      0     0.0  0.00   0.0   0.050   0.000   73.1    56   56.5   73.2  10.29  .0734    0.000   202    7    100.0   10 
 6/13/21 10:40p   57.6   57.9   57.6    98   57.0   5.0     N   0.83   9.0     N   57.1   57.9   57.4   55.2  29.960  0.00  0.00     0     0.00      0     0.0  0.00   0.0   0.051   0.000   73.1    56   56.5   73.2  10.29  .0734    0.000   205    7    100.0   10 
 6/13/21 10:50p   57.6   57.7   57.6    98   57.0   6.0     N   1.00  10.0     N   56.7   57.9   57.0   54.8  29.962  0.00  0.00     0     0.00      0     0.0  0.00   0.0   0.051   0.000   73.1    56   56.5   73.2  10.29  .0734    0.000   201    7    100.0   10 
 6/13/21 11:00p   57.6   57.7   57.5    99   57.3   5.0     N   0.83   9.0     S   57.1   58.0   57.5   55.3  29.963  0.00  0.00     0     0.00      0     0.0  0.00   0.0   0.051   0.000   73.0    56   56.4   73.1  10.29  .0735    0.000   200    7    100.0   10 
 6/13/21 11:10p   57.6   57.7   57.6    99   57.3   5.0     N   0.83   8.0     N   57.1   58.0   57.5   55.3  29.963  0.01  0.00     0     0.00      0     0.0  0.00   0.0   0.051   0.000   73.0    56   56.4   73.1  10.29  .0735    0.000   203    7    100.0   10 
 6/13/21 11:20p   57.6   57.6   57.5    99   57.3   6.0     N   1.00  10.0     N   56.7   58.0   57.1   54.9  29.960  0.00  0.00     0     0.00      0     0.0  0.00   0.0   0.051   0.000   73.0    56   56.4   73.1  10.29  .0735    0.000   203    7    100.0   10 
 6/13/21 11:30p   57.6   57.7   57.5    99   57.3   5.0     N   0.83   9.0     N   57.1   58.0   57.5   55.3  29.962  0.00  0.00     0     0.00      0     0.0  0.00   0.0   0.051   0.000   73.0    56   56.4   73.1  10.29  .0735    0.000   203    7    100.0   10 
 6/13/21 11:40p   57.8   57.8   57.6    99   57.5   5.0     N   0.83   8.0     N   57.4   58.2   57.8   55.6  29.962  0.00  0.00     0     0.00      0     0.0  0.00   0.0   0.050   0.000   72.9    56   56.3   72.9  10.29  .0735    0.000   201    7    100.0   10 
 6/13/21 11:50p   57.8   57.8   57.7    99   57.5   4.0     S   0.67   6.0     N   57.8   58.2   58.2   56.0  29.962  0.01  0.00     0     0.00      0     0.0  0.00   0.0   0.050   0.000   72.9    56   56.3   72.9  10.29  .0735    0.000   202    7    100.0   10 
 6/14/21 12:00a   57.7   57.8   57.6    99   57.4   6.0     N   1.00  10.0     N   56.8   58.1   57.2   55.0  29.965  0.00  0.00     0     0.00      0     0.0  0.00   0.0   0.051   0.000   72.9    56   56.3   72.9  10.29  .0735    0.000   201    7    100.0   10 
 6/14/21 12:10a   57.6   57.7   57.6    99   57.3   7.0     N   1.17  13.0     N   56.3   58.0   56.7   54.5  29.963  0.00  0.00     0     0.00      0     0.0  0.00   0.0   0.051   0.000   72.8    56   56.2   72.8  10.29  .0735    0.000   202    7    100.0   10 
 6/14/21 12:20a   57.6   57.6   57.5    99   57.3   5.0     N   0.83   9.0   SSW   57.1   58.0   57.5   55.3  29.961  0.00  0.00     0     0.00      0     0.0  0.00   0.0   0.051   0.000   72.8    56   56.2   72.8  10.29  .0735    0.000   204    7    100.0   10 
 6/14/21 12:30a   57.5   57.7   57.5    99   57.2   5.0     N   0.83  10.0     N   57.0   57.9   57.4   55.2  29.960  0.00  0.00     0     0.00      0     0.0  0.00   0.0   0.052   0.000   72.8    56   56.2   72.8  10.29  .0735    0.000   200    7    100.0   10 
 6/14/21 12:40a   57.6   57.6   57.5    99   57.3   5.0     N   0.83  10.0     N   57.1   58.0   57.5   55.3  29.959  0.00  0.00     0     0.00      0     0.0  0.00   0.0   0.051   0.000   72.7    56   56.1   72.6  10.30  .0735    0.000   204    7    100.0   10 
 6/14/21 12:50a   57.6   57.6   57.5    99   57.3   6.0     N   1.00  11.0     N   56.7   58.0   57.1   54.9  29.961  0.00  0.00     0     0.00      0     0.0  0.00   0.0   0.051   0.000   72.7    56   56.1   72.6  10.30  .0735    0.000   202    7    100.0   10 
 6/14/21  1:00a   57.4   57.6   57.4    99   57.1   9.0     N   1.50  14.0     N   54.6   57.8   55.0   53.0  29.965  0.00  0.00     0     0.00      0     0.0  0.00   0.0   0.053   0.000   72.7    56   56.1   72.6  10.30  .0735    0.000   202    7    100.0   10 
 6/14/21  1:10a   57.3   57.5   57.3    99   57.0   7.0     N   1.17  10.0     N   56.0   57.7   56.4   54.2  29.965  0.00  0.00     0     0.00      0     0.0  0.00   0.0   0.053   0.000   72.7    56   56.1   72.6  10.30  .0735    0.000   203    7    100.0   10 
 6/14/21  1:20a   57.3   57.3   57.3    99   57.0   7.0     N   1.17  10.0     N   56.0   57.7   56.4   54.2  29.962  0.00  0.00     0     0.00      0     0.0  0.00   0.0   0.053   0.000   72.7    56   56.1   72.6  10.30  .0735    0.000   203    7    100.0   10 
 6/14/21  1:30a   57.2   57.3   57.2    99   56.9   9.0     N   1.50  13.0     N   54.3   57.6   54.7   52.7  29.958  0.00  0.00     0     0.00      0     0.0  0.00   0.0   0.054   0.000   72.6    56   56.0   72.5  10.30  .0735    0.000   203    7    100.0   10 
 6/14/21  1:40a   57.2   57.3   57.1    99   56.9  11.0     N   1.83  15.0     N   53.1   57.6   53.5   51.6  29.963  0.00  0.00     0     0.00      0     0.0  0.00   0.0   0.054   0.000   72.6    56   56.0   72.5  10.30  .0735    0.000   203    7    100.0   10 
 6/14/21  1:50a   57.1   57.2   57.1    99   56.8  10.0     N   1.67  14.0     N   53.6   57.5   54.0   52.1  29.962  0.00  0.00     0     0.00      0     0.0  0.00   0.0   0.055   0.000   72.5    56   55.9   72.3  10.30  .0736    0.000   202    7    100.0   10 
 6/14/21  2:00a   57.1   57.2   57.1    99   56.8   7.0     N   1.17  13.0     N   55.7   57.5   56.1   53.9  29.955  0.00  0.00     0     0.00      0     0.0  0.00   0.0   0.055   0.000   72.5    56   55.9   72.3  10.30  .0735    0.000   203    7    100.0   10 
 6/14/21  2:10a   57.0   57.1   57.0    99   56.7   8.0     N   1.33  13.0     N   54.9   57.4   55.3   53.2  29.960  0.00  0.00     0     0.00      0     0.0  0.00   0.0   0.056   0.000   72.5    56   55.9   72.3  10.30  .0735    0.000   202    7    100.0   10 
 6/14/21  2:20a   57.0   57.1   57.0    99   56.7   8.0     N   1.33  15.0     N   54.9   57.4   55.3   53.2  29.968  0.00  0.00     0     0.00      0     0.0  0.00   0.0   0.056   0.000   72.5    56   55.9   72.3  10.30  .0736    0.000   202    7    100.0   10 
 6/14/21  2:30a   56.9   57.0   56.9    99   56.6   8.0     N   1.33  12.0     N   54.8   57.3   55.2   53.1  29.966  0.00  0.00     0     0.00      0     0.0  0.00   0.0   0.056   0.000   72.4    56   55.8   72.2  10.30  .0736    0.000   204    7    100.0   10 
 6/14/21  2:40a   56.9   57.0   56.9    99   56.6   7.0     N   1.17  12.0     N   55.5   57.3   55.9   53.7  29.965  0.00  0.00     0     0.00      0     0.0  0.00   0.0   0.056   0.000   72.4    56   55.8   72.2  10.30  .0736    0.000   202    7    100.0   10 
 6/14/21  2:50a   56.8   56.9   56.8    99   56.5   9.0     N   1.50  12.0     N   53.9   57.2   54.3   52.3  29.971  0.00  0.00     0     0.00      0     0.0  0.00   0.0   0.057   0.000   72.4    56   55.8   72.2  10.30  .0736    0.000   202    7    100.0   10 
 6/14/21  3:00a   56.8   56.9   56.8    99   56.5   8.0     N   1.33  13.0     N   54.7   57.2   55.1   53.0  29.968  0.00  0.00     0     0.00      0     0.0  0.00   0.0   0.057   0.000   72.4    56   55.8   72.2  10.30  .0736    0.000   203    7    100.0   10 
 6/14/21  3:10a   56.7   56.8   56.7    99   56.4   9.0     N   1.50  14.0     N   53.8   57.1   54.2   52.2  29.970  0.00  0.00     0     0.00      0     0.0  0.00   0.0   0.058   0.000   72.3    56   55.7   72.0  10.30  .0736    0.000   203    7    100.0   10 
 6/14/21  3:20a   56.6   56.7   56.6    99   56.3   9.0     N   1.50  15.0     N   53.7   57.0   54.1   52.1  29.969  0.00  0.00     0     0.00      0     0.0  0.00   0.0   0.058   0.000   72.3    56   55.7   72.0  10.30  .0736    0.000   201    7    100.0   10 
 6/14/21  3:30a   56.5   56.6   56.5    99   56.2  10.0     N   1.67  17.0     N   52.9   56.9   53.3   51.4  29.976  0.00  0.00     0     0.00      0     0.0  0.00   0.0   0.059   0.000   72.3    56   55.7   72.0  10.30  .0736    0.000   204    7    100.0   10 
 6/14/21  3:40a   56.5   56.6   56.4    99   56.2  10.0     N   1.67  17.0     N   52.9   56.9   53.3   51.4  29.969  0.00  0.00     0     0.00      0     0.0  0.00   0.0   0.059   0.000   72.2    56   55.6   71.9  10.31  .0736    0.000   204    7    100.0   10 
 6/14/21  3:50a   56.4   56.5   56.4    99   56.1   9.0     N   1.50  13.0     N   53.4   56.8   53.8   51.8  29.974  0.00  0.00     0     0.00      0     0.0  0.00   0.0   0.060   0.000   72.2    56   55.6   71.9  10.31  .0736    0.000   203    7    100.0   10 
 6/14/21  4:00a   56.4   56.4   56.4    99   56.1   7.0     N   1.17  11.0     N   54.9   56.8   55.3   53.1  29.980  0.00  0.00     0     0.00      0     0.0  0.00   0.0   0.060   0.000   72.2    56   55.6   71.9  10.31  .0737    0.000   202    7    100.0   10 
 6/14/21  4:10a   56.4   56.4   56.3    99   56.1   7.0     N   1.17  12.0     N   54.9   56.8   55.3   53.1  29.979  0.00  0.00     0     0.00      0     0.0  0.00   0.0   0.060   0.000   72.1    56   55.5   71.7  10.31  .0737    0.000   203    7    100.0   10 
 6/14/21  4:20a   56.4   56.4   56.4    99   56.1   7.0     N   1.17  12.0     N   54.9   56.8   55.3   53.1  29.976  0.00  0.00     0     0.00      0     0.0  0.00   0.0   0.060   0.000   72.1    56   55.5   71.7  10.31  .0737    0.000   200    7    100.0   10 
 6/14/21  4:30a   56.4   56.4   56.4    99   56.1   6.0     N   1.00  10.0     N   55.3   56.8   55.7   53.5  29.976  0.00  0.00     0     0.00      0     0.0  0.00   0.0   0.060   0.000   72.1    56   55.5   71.7  10.31  .0737    0.000   202    7    100.0   10 
 6/14/21  4:40a   56.4   56.4   56.3    99   56.1   8.0     N   1.33  12.0     N   54.2   56.8   54.6   52.5  29.981  0.00  0.00     0     0.00      0     0.0  0.00   0.0   0.060   0.000   72.0    56   55.4   71.6  10.31  .0737    0.000   202    7    100.0   10 
 6/14/21  4:50a   56.2   56.4   56.2    99   55.9   9.0     N   1.50  14.0     N   53.2   56.6   53.6   51.5  29.980  0.00  0.00     0     0.00      0     0.0  0.00   0.0   0.061   0.000   72.0    56   55.4   71.6  10.31  .0737    0.000   204    7    100.0   10 
 6/14/21  5:00a   56.1   56.2   56.1    99   55.8   8.0     N   1.33  13.0     N   53.8   56.5   54.2   52.0  29.977  0.00  0.00     0     0.00      0     0.0  0.00   0.0   0.062   0.000   72.0    56   55.4   71.6  10.31  .0737    0.000   201    7    100.0   10 
 6/14/21  5:10a   56.0   56.1   56.0    99   55.7  10.0     N   1.67  14.0     N   52.3   56.4   52.7   50.7  29.981  0.00  0.00     0     0.00      0     0.0  0.00   0.0   0.063   0.000   71.9    56   55.3   71.4  10.31  .0737    0.000   200    7    100.0   10 
 6/14/21  5:20a   56.0   56.0   55.9    99   55.7  10.0     N   1.67  15.0     N   52.3   56.4   52.7   50.7  29.985  0.00  0.00     0     0.00      0     0.0  0.00   0.0   0.063   0.000   71.9    56   55.3   71.4  10.31  .0737    0.000   203    7    100.0   10 
 6/14/21  5:30a   55.8   56.0   55.8    99   55.5  10.0     N   1.67  15.0     N   52.1   56.2   52.5   50.5  29.988  0.00  0.00     0     0.00      0     0.0  0.00   0.0   0.064   0.000   71.9    56   55.3   71.4  10.31  .0737    0.000   202    7    100.0   10 
 6/14/21  5:40a   55.6   55.8   55.6    99   55.3  10.0     N   1.67  16.0     N   51.8   56.0   52.2   50.3  29.991  0.00  0.00     4     0.06      7     0.0  0.00   0.0   0.065   0.000   71.8    56   55.3   71.3  10.31  .0737    0.000   204    7    100.0   10 
 6/14/21  5:50a   55.7   55.7   55.5    99   55.4  10.0     N   1.67  16.0     N   51.9   56.1   52.3   50.5  29.997  0.00  0.00    10     0.14     12     0.0  0.00   0.0   0.065   0.000   71.8    56   55.3   71.3  10.31  .0738    0.000   201    7    100.0   10 
 6/14/21  6:00a   55.7   55.7   55.6    99   55.4   9.0     N   1.50  15.0     N   52.6   56.1   53.0   51.4  29.995  0.00  0.00    19     0.27     23     0.0  0.00   0.0   0.065   0.000   71.8    56   55.3   71.3  10.31  .0738    0.000   203    7    100.0   10 
 6/14/21  6:10a   55.7   55.8   55.7    99   55.4   9.0     N   1.50  17.0     N   52.6   56.1   53.0   51.4  29.996  0.00  0.00    19     0.27     23     0.0  0.00   0.0   0.065   0.000   71.8    55   54.8   71.2  10.11  .0738    0.000   204    7    100.0   10 
 6/14/21  6:20a   55.5   55.8   55.4    99   55.2  11.0     N   1.83  16.0     N   51.2   55.9   51.6   50.2  29.999  0.00  0.00    25     0.36     32     0.0  0.00   0.0   0.066   0.000   71.8    55   54.8   71.2  10.11  .0738    0.000   200    7    100.0   10 
 6/14/21  6:30a   55.5   55.5   55.4    99   55.2  11.0     N   1.83  15.0     N   51.2   55.9   51.6   50.2  29.999  0.00  0.00    27     0.39     30     0.0  0.00   0.0   0.066   0.000   71.9    55   54.9   71.4  10.11  .0738    0.000   201    7    100.0   10 
 6/14/21  6:40a   55.3   55.5   55.3    99   55.0  11.0     N   1.83  18.0     N   50.9   55.7   51.3   50.1  30.005  0.00  0.00    36     0.52     44     0.0  0.00   0.0   0.067   0.000   71.9    55   54.9   71.4  10.11  .0738    0.000   200    7    100.0   10 
 6/14/21  6:50a   55.3   55.4   55.3    99   55.0  11.0     N   1.83  15.0     N   50.9   55.7   51.3   50.2  30.006  0.00  0.00    42     0.60     46     0.0  0.00   0.0   0.067   0.000   71.9    55   54.9   71.4  10.11  .0738    0.000   203    7    100.0   10 
 6/14/21  7:00a   55.3   55.4   55.3    99   55.0  11.0     N   1.83  15.0     N   50.9   55.7   51.3   51.8  30.006  0.00  0.00    50     0.72     58     0.0  0.00   0.0   0.067   0.000   71.9    55   54.9   71.4  10.11  .0738    0.001   201    7    100.0   10 
 6/14/21  7:10a   55.5   55.5   55.3    99   55.2   9.0     N   1.50  14.0     N   52.4   55.9   52.8   53.4  30.011  0.00  0.00    53     0.76     70     0.0  0.00   0.0   0.066   0.000   72.0    55   54.9   71.5  10.11  .0738    0.000   197    7     99.5   10 
 6/14/21  7:20a   55.6   55.6   55.4    99   55.3   8.0     N   1.33  14.0     N   53.2   56.0   53.6   55.3  30.014  0.00  0.00    79     1.13     95     0.0  0.00   0.0   0.065   0.000   72.0    55   54.9   71.5  10.11  .0738    0.000   204    7    100.0   10 
 6/14/21  7:30a   55.6   55.7   55.6    99   55.3   9.0     N   1.50  14.0     N   52.5   56.0   52.9   53.7  30.015  0.00  0.00    60     0.86     91     0.0  0.00   0.0   0.065   0.000   72.0    55   54.9   71.5  10.11  .0738    0.000   203    7    100.0   10 
 6/14/21  7:40a   55.7   55.8   55.5    99   55.4   9.0     N   1.50  13.0     N   52.6   56.1   53.0   53.9  30.015  0.00  0.00    63     0.90     74     0.2  0.01   0.5   0.065   0.000   72.1    55   55.0   71.6  10.11  .0738    0.000   202    7    100.0   10 
 6/14/21  7:50a   55.8   55.8   55.7    99   55.5  10.0     N   1.67  15.0     N   52.1   56.2   52.5   53.6  30.016  0.00  0.00    70     1.00     83     0.5  0.04   0.5   0.064   0.000   72.1    55   55.0   71.6  10.11  .0738    0.000   203    7    100.0   10 
 6/14/21  8:00a   55.8   55.8   55.7    99   55.5  10.0     N   1.67  15.0     N   52.1   56.2   52.5   53.4  30.017  0.00  0.00    68     0.97     97     0.6  0.04   0.6   0.064   0.000   72.1    55   55.0   71.6  10.11  .0738    0.001   201    7    100.0   10 
 6/14/21  8:10a   55.7   55.8   55.7    99   55.4  11.0     N   1.83  16.0     N   51.4   56.1   51.8   52.6  30.018  0.00  0.00    72     1.03     98     0.7  0.05   0.7   0.065   0.000   72.2    55   55.1   71.8  10.11  .0738    0.000   194    7     98.0   10 
 6/14/21  8:20a   55.7   55.8   55.7    99   55.4  11.0     N   1.83  15.0     N   51.4   56.1   51.8   53.8  30.019  0.00  0.00   108     1.55    174     0.8  0.06   0.9   0.065   0.000   72.2    55   55.1   71.8  10.11  .0738    0.000   200    7    100.0   10 
 6/14/21  8:30a   55.9   55.9   55.7    99   55.6  12.0     N   2.00  18.0     N   51.1   56.3   51.5   58.9  30.024  0.00  0.00   390     5.59    431     1.1  0.08   1.2   0.063   0.000   72.2    55   55.1   71.8  10.11  .0738    0.000   201    7    100.0   10 
 6/14/21  8:40a   55.9   55.9   55.8    99   55.6  12.0     N   2.00  17.0     N   51.1   56.3   51.5   59.1  30.026  0.00  0.00   379     5.43    459     1.2  0.09   1.4   0.063   0.000   72.2    55   55.1   71.8  10.11  .0738    0.000   203    7    100.0   10 
 6/14/21  8:50a   55.9   55.9   55.8    99   55.6  13.0     N   2.17  18.0     N   50.6   56.3   51.0   58.5  30.029  0.00  0.00   402     5.76    469     1.4  0.10   1.5   0.063   0.000   72.2    55   55.1   71.8  10.11  .0738    0.000   201    7    100.0   10 
 6/14/21  9:00a   55.8   55.9   55.7    99   55.5  13.0     N   2.17  20.0     N   50.5   56.2   50.9   58.5  30.034  0.00  0.00   417     5.98    492     1.6  0.11   1.7   0.064   0.000   72.3    55   55.2   72.0  10.10  .0738    0.006   201    7    100.0   10 
 6/14/21  9:10a   55.8   55.8   55.7    99   55.5  13.0     N   2.17  17.0     N   50.5   56.2   50.9   56.3  30.035  0.00  0.00   295     4.23    473     1.6  0.11   1.8   0.064   0.000   72.3    55   55.2   72.0  10.10  .0738    0.000   200    7    100.0   10 
 6/14/21  9:20a   55.7   55.9   55.7    99   55.4  13.0     N   2.17  19.0     N   50.4   56.1   50.8   51.7  30.034  0.00  0.00    96     1.38    109     1.3  0.09   1.3   0.065   0.000   72.3    55   55.2   72.0  10.10  .0738    0.000   200    7    100.0   10 
 6/14/21  9:30a   55.6   55.7   55.6    99   55.3  14.0     N   2.33  22.0     N   49.9   56.0   50.3   51.1  30.034  0.00  0.00    99     1.42    109     1.3  0.09   1.4   0.065   0.000   72.4    55   55.3   72.1  10.10  .0738    0.000   204    7    100.0   10 
 6/14/21  9:40a   55.7   55.7   55.6    99   55.4  13.0     N   2.17  20.0     N   50.4   56.1   50.8   51.5  30.036  0.00  0.00    95     1.36    105     1.4  0.10   1.4   0.065   0.000   72.4    55   55.3   72.1  10.10  .0738    0.000   199    7    100.0   10 
 6/14/21  9:50a   55.9   55.9   55.7    99   55.6  12.0     N   2.00  18.0     N   51.1   56.3   51.5   52.9  30.038  0.00  0.00   124     1.78    146     1.5  0.11   1.6   0.063   0.000   72.4    55   55.3   72.1  10.10  .0738    0.000   203    7    100.0   10 
 6/14/21 10:00a   56.1   56.1   55.8    99   55.8  12.0     N   2.00  17.0     N   51.3   56.5   51.7   54.0  30.037  0.00  0.00   167     2.39    186     1.7  0.12   1.8   0.062   0.000   72.5    55   55.4   72.3  10.10  .0738    0.003   201    7    100.0   10 
 6/14/21 10:10a   56.4   56.4   56.1    99   56.1  12.0     N   2.00  17.0     N   51.6   56.8   52.0   54.6  30.038  0.00  0.00   182     2.61    188     1.8  0.13   1.9   0.060   0.000   72.5    55   55.4   72.3  10.10  .0738    0.000   199    7    100.0   10 
 6/14/21 10:20a   56.7   56.8   56.3    99   56.4  13.0     N   2.17  17.0     N   51.5   57.1   51.9   54.3  30.037  0.00  0.00   181     2.59    202     1.9  0.14   2.0   0.058   0.000   72.5    55   55.4   72.3  10.10  .0738    0.000   198    7    100.0   10 
 6/14/21 10:30a   56.9   56.9   56.6    98   56.3  13.0     N   2.17  19.0     N   51.8   57.2   52.1   58.9  30.042  0.00  0.00   446     6.39    554     2.7  0.19   3.7   0.056   0.000   72.6    55   55.5   72.4  10.10  .0738    0.000   200    7    100.0   10 
 6/14/21 10:40a   57.1   57.1   56.8    98   56.5  14.0     N   2.33  19.0     N   51.6   57.4   51.9   60.0  30.044  0.00  0.00   606     8.69    701     3.3  0.24   3.8   0.055   0.000   72.6    55   55.5   72.4  10.10  .0738    0.000   199    7    100.0   10 
 6/14/21 10:50a   57.5   57.6   57.1    98   56.9  13.0     N   2.17  18.0     N   52.5   57.8   52.8   61.1  30.046  0.00  0.00   785    11.25    807     4.0  0.29   4.4   0.052   0.000   72.7    55   55.6   72.5  10.10  .0737    0.000   203    7    100.0   10 
 6/14/21 11:00a   57.8   57.8   57.5    98   57.2  14.0     N   2.33  21.0     N   52.4   58.2   52.8   60.7  30.051  0.00  0.00   789    11.31    812     4.5  0.32   4.6   0.050   0.000   72.7    55   55.6   72.5  10.10  .0738    0.010   202    7    100.0   10 
 6/14/21 11:10a   58.2   58.2   57.8    98   57.6  12.0     N   2.00  18.0     N   53.7   58.6   54.1   62.8  30.052  0.00  0.00   832    11.93    867     4.6  0.33   4.9   0.047   0.000   72.7    55   55.6   72.5  10.10  .0738    0.000   203    7    100.0   10 
 6/14/21 11:20a   58.5   58.5   58.1    97   57.7  11.0     N   1.83  15.0     N   54.6   58.9   55.0   64.2  30.054  0.00  0.00   867    12.43    944     5.0  0.36   5.1   0.045   0.000   72.7    55   55.6   72.5  10.10  .0738    0.000   204    7    100.0   10 
 6/14/21 11:30a   58.5   58.5   58.3    97   57.7  14.0     N   2.33  20.0     N   53.2   58.9   53.6   61.9  30.057  0.00  0.00   806    11.55    912     4.7  0.34   5.3   0.045   0.000   72.8    55   55.7   72.7  10.09  .0738    0.000   200    7    100.0   10 
 6/14/21 11:40a   58.2   58.5   58.1    97   57.4  16.0     N   2.67  22.0     N   52.2   58.6   52.6   59.4  30.058  0.00  0.00   537     7.70    707     4.1  0.29   4.8   0.047   0.000   72.9    55   55.8   72.9  10.09  .0737    0.000   202    7    100.0   10 
 6/14/21 11:50a   57.9   58.1   57.8    97   57.1  16.0     N   2.67  21.0     S   51.9   58.2   52.2   60.3  30.060  0.00  0.00   744    10.67    828     4.6  0.33   5.4   0.049   0.000   73.0    55   55.9   73.0  10.09  .0737    0.000   204    7    100.0   10 
 6/14/21 12:00p   58.0   58.0   57.9    96   56.9  16.0     N   2.67  22.0     N   52.0   58.3   52.3   59.8  30.063  0.00  0.00   633     9.07    740     4.1  0.29   4.3   0.049   0.000   73.1    55   56.0   73.1  10.09  .0737    0.015   200    7    100.0   10 
 6/14/21 12:10p   58.0   58.1   57.9    96   56.9  15.0     N   2.50  21.0     N   52.3   58.3   52.6   60.8  30.064  0.00  0.00   698    10.01    911     4.5  0.32   5.2   0.049   0.000   73.2    55   56.1   73.2  10.09  .0737    0.000   204    7    100.0   10 
 6/14/21 12:20p   58.0   58.1   57.9    96   56.9  15.0     N   2.50  21.0     N   52.3   58.3   52.6   61.0  30.067  0.00  0.00   829    11.88    962     5.4  0.39   6.2   0.049   0.000   73.3    55   56.2   73.4  10.08  .0737    0.000   200    7    100.0   10 
 6/14/21 12:30p   58.0   58.0   57.8    96   56.9  16.0     N   2.67  21.0     N   52.0   58.3   52.3   60.4  30.069  0.00  0.00   831    11.91    851     5.8  0.41   6.6   0.049   0.000   73.3    56   56.7   73.4  10.28  .0737    0.000   200    7    100.0   10 
 6/14/21 12:40p   58.2   58.2   58.0    96   57.1  16.0     N   2.67  24.0     N   52.2   58.5   52.5   60.7  30.074  0.00  0.00   832    11.93    860     6.0  0.43   6.5   0.047   0.000   73.2    56   56.6   73.3  10.29  .0737    0.000   201    7    100.0   10 
 6/14/21 12:50p   58.3   58.3   58.1    96   57.2  16.0     N   2.67  24.0     N   52.3   58.6   52.6   59.7  30.073  0.00  0.00   923    13.23    998     6.3  0.45   6.7   0.047   0.000   73.1    56   56.5   73.2  10.29  .0737    0.000   202    7    100.0   10 
 6/14/21  1:00p   58.2   58.3   58.1    95   56.8  16.0     N   2.67  20.0     N   52.2   58.5   52.5   60.0  30.080  0.00  0.00   975    13.98   1013     6.4  0.46   6.6   0.047   0.000   73.0    55   55.9   73.0  10.09  .0738    0.018   198    7    100.0   10 
 6/14/21  1:10p   58.2   58.3   58.1    95   56.8  16.0     N   2.67  22.0     N   52.2   58.5   52.5   59.8  30.078  0.00  0.00   961    13.78   1000     6.4  0.46   6.6   0.047   0.000   72.5    56   55.9   72.3  10.30  .0738    0.000   200    7    100.0   10 
 6/14/21  1:20p   58.3   58.4   58.2    95   56.9  16.0     N   2.67  22.0     N   52.3   58.6   52.6   60.1  30.077  0.00  0.00   980    14.05   1046     6.5  0.46   6.6   0.047   0.000   72.5    56   55.9   72.3  10.30  .0738    0.000   201    7    100.0   10 
 6/14/21  1:30p   58.6   58.6   58.3    95   57.2  15.0     N   2.50  20.0     N   53.0   59.0   53.4   61.1  30.076  0.00  0.00   966    13.85    977     6.4  0.46   6.5   0.044   0.000   72.6    56   56.0   72.5  10.30  .0738    0.000   200    7    100.0   10 
 6/14/21  1:40p   58.7   58.7   58.5    95   57.3  15.0     N   2.50  19.0     N   53.1   59.1   53.5   61.2  30.077  0.00  0.00   969    13.89    972     6.4  0.46   6.4   0.044   0.000   72.7    56   56.1   72.6  10.30  .0738    0.000   200    7    100.0   10 
 6/14/21  1:50p   58.2   58.7   58.2    95   56.8  15.0     N   2.50  20.0     N   52.5   58.5   52.8   60.5  30.078  0.00  0.00   969    13.89    981     6.3  0.45   6.4   0.047   0.000   72.8    56   56.2   72.8  10.29  .0738    0.000   202    7    100.0   10 
 6/14/21  2:00p   58.6   58.6   58.2    95   57.2  14.0     N   2.33  19.0     N   53.3   59.0   53.7   61.6  30.077  0.00  0.00   958    13.73    963     6.2  0.44   6.3   0.044   0.000   72.9    56   56.3   72.9  10.29  .0738    0.020   201    7    100.0   10 
 6/14/21  2:10p   59.1   59.1   58.6    94   57.4  14.0     N   2.33  20.0     N   53.9   59.5   54.3   62.3  30.080  0.00  0.00   952    13.65    970     6.1  0.44   6.1   0.041   0.000   72.9    56   56.3   72.9  10.29  .0738    0.000   203    7    100.0   10 
 6/14/21  2:20p   59.2   59.2   59.0    94   57.5  14.0     N   2.33  20.0     N   54.0   59.6   54.4   62.1  30.081  0.00  0.00   915    13.12    990     5.9  0.42   6.1   0.040   0.000   73.0    56   56.4   73.1  10.29  .0738    0.000   203    7    100.0   10 
 6/14/21  2:30p   59.3   59.4   59.1    94   57.6  14.0     N   2.33  18.0     N   54.1   59.7   54.5   62.6  30.085  0.00  0.00   939    13.46    946     5.8  0.41   5.8   0.040   0.000   73.1    56   56.5   73.2  10.29  .0738    0.000   199    7    100.0   10 
 6/14/21  2:40p   59.6   59.7   59.3    93   57.6  14.0     N   2.33  20.0     N   54.5   59.9   54.8   63.0  30.089  0.00  0.00   929    13.32    933     5.6  0.40   5.7   0.038   0.000   73.3    56   56.7   73.4  10.28  .0737    0.000   200    7    100.0   10 
 6/14/21  2:50p   60.2   60.2   59.7    94   58.5  12.0     N   2.00  18.0     N   56.0   60.6   56.4   64.9  30.088  0.00  0.00   899    12.89    940     5.4  0.39   5.5   0.033   0.000   73.3    56   56.7   73.4  10.28  .0737    0.000   196    7     99.0   10 
 6/14/21  3:00p   61.3   61.3   60.1    92   59.0  11.0     N   1.83  16.0     N   57.8   61.8   58.3   67.6  30.085  0.00  0.00   916    13.13    919     5.2  0.37   5.4   0.026   0.000   73.3    56   56.7   73.4  10.28  .0737    0.019   200    7    100.0   10 
 6/14/21  3:10p   61.5   61.6   61.3    91   58.8  12.0     N   2.00  18.0     N   57.5   62.0   58.0   66.9  30.086  0.00  0.00   896    12.84    909     5.1  0.36   5.2   0.024   0.000   73.4    56   56.7   73.6  10.28  .0737    0.000   200    7    100.0   10 
 6/14/21  3:20p   61.4   61.5   61.2    90   58.4  13.0     N   2.17  19.0     N   56.9   61.8   57.3   65.9  30.085  0.00  0.00   872    12.50    882     4.9  0.35   5.0   0.025   0.000   73.4    56   56.7   73.6  10.28  .0737    0.000   200    7    100.0   10 
 6/14/21  3:30p   62.3   62.4   61.4    89   59.0  14.0     N   2.33  20.0     N   57.5   62.8   58.0   66.5  30.088  0.00  0.00   861    12.34    868     4.7  0.34   4.8   0.019   0.000   73.5    56   56.8   73.7  10.28  .0737    0.000   203    7    100.0   10 
 6/14/21  3:40p   62.4   62.5   62.3    88   58.8  14.0     N   2.33  22.0     N   57.6   62.9   58.1   66.6  30.088  0.00  0.00   843    12.08    849     4.4  0.31   4.5   0.018   0.000   73.5    56   56.8   73.7  10.28  .0737    0.000   203    7    100.0   10 
 6/14/21  3:50p   62.6   62.7   62.5    87   58.7  14.0     N   2.33  20.0     N   57.9   63.1   58.4   67.1  30.091  0.00  0.00   835    11.97    842     4.2  0.30   4.3   0.017   0.000   73.6    56   56.9   73.8  10.28  .0737    0.000   201    7    100.0   10 
 6/14/21  4:00p   62.6   62.8   62.6    87   58.7  13.0     N   2.17  20.0     N   58.3   63.1   58.8   67.9  30.093  0.00  0.00   823    11.80    844     4.0  0.29   4.1   0.017   0.000   73.6    56   56.9   73.8  10.28  .0737    0.019   199    7    100.0   10 
 6/14/21  4:10p   62.1   62.6   62.1    87   58.2  16.0     N   2.67  20.0     N   56.6   62.5   57.0   64.8  30.097  0.00  0.00   713    10.22    788     3.6  0.26   3.8   0.020   0.000   73.7    56   57.0   73.9  10.28  .0737    0.000   202    7    100.0   10 
 6/14/21  4:20p   62.3   62.3   62.1    87   58.4  15.0     N   2.50  22.0     N   57.2   62.7   57.6   66.7  30.099  0.00  0.00   811    11.63    833     3.2  0.23   3.6   0.019   0.000   73.8    56   57.1   74.1  10.27  .0737    0.000   198    7    100.0   10 
 6/14/21  4:30p   61.7   62.5   61.7    86   57.5  12.0     N   2.00  17.0     N   57.7   62.0   58.0   65.8  30.098  0.00  0.00   490     7.02    851     2.5  0.18   3.4   0.023   0.000   73.9    56   57.2   74.2  10.27  .0736    0.000   201    7    100.0   10 
 6/14/21  4:40p   61.8   61.9   61.6    87   57.9  13.0     N   2.17  20.0     N   57.4   62.2   57.8   67.4  30.095  0.00  0.00   752    10.78    823     3.0  0.21   3.2   0.022   0.000   74.0    56   57.3   74.3  10.27  .0736    0.000   202    7    100.0   10 
 6/14/21  4:50p   62.1   62.2   61.8    87   58.2  13.0     N   2.17  18.0     N   57.7   62.5   58.1   67.6  30.096  0.00  0.00   719    10.31    742     2.8  0.20   2.9   0.020   0.000   74.0    56   57.3   74.3  10.27  .0736    0.000   204    7    100.0   10 
 6/14/21  5:00p   61.6   62.2   61.5    87   57.7  13.0     N   2.17  20.0     N   57.1   61.9   57.4   63.7  30.101  0.00  0.00   369     5.29    629     2.1  0.15   2.7   0.024   0.000   74.2    56   57.5   74.6  10.27  .0736    0.015   202    7    100.0   10 
 6/14/21  5:10p   62.0   62.0   61.6    87   58.1  13.0     N   2.17  18.0     N   57.6   62.4   58.0   68.3  30.101  0.00  0.00   707    10.13    824     2.3  0.16   2.5   0.021   0.000   74.3    56   57.6   74.7  10.26  .0736    0.000   203    7    100.0   10 
 6/14/21  5:20p   61.5   62.0   61.5    87   57.6  15.0     N   2.50  21.0     N   56.3   61.8   56.6   65.9  30.100  0.00  0.00   656     9.40    749     2.0  0.14   2.2   0.024   0.000   74.3    56   57.6   74.7  10.26  .0736    0.000   199    7    100.0   10 
 6/14/21  5:30p   61.0   61.5   61.0    88   57.4  15.0     N   2.50  22.0     N   55.7   61.3   56.0   65.4  30.102  0.00  0.00   633     9.07    635     1.7  0.12   2.0   0.028   0.000   74.4    55   57.2   74.7  10.06  .0736    0.000   200    7    100.0   10 
 6/14/21  5:40p   60.9   61.0   60.8    89   57.6  13.0     N   2.17  20.0     N   56.3   61.3   56.7   64.9  30.103  0.00  0.00   513     7.35    564     1.6  0.11   1.7   0.028   0.000   74.4    55   57.2   74.7  10.06  .0736    0.000   202    7    100.0   10 
 6/14/21  5:50p   60.9   61.1   60.9    88   57.3  11.0     N   1.83  16.0     N   57.4   61.2   57.7   65.7  30.104  0.00  0.00   398     5.71    464     1.3  0.09   1.6   0.028   0.000   74.5    55   57.3   74.8  10.06  .0736    0.000   202    7    100.0   10 
 6/14/21  6:00p   61.3   61.4   60.8    88   57.7  11.0     N   1.83  16.0     N   57.8   61.6   58.1   67.6  30.104  0.00  0.00   497     7.12    598     1.3  0.09   1.4   0.026   0.000   74.6    55   57.4   75.0  10.06  .0736    0.012   200    7    100.0   10 
 6/14/21  6:10p   61.5   61.5   61.3    88   57.9  11.0     N   1.83  18.0     N   58.1   61.9   58.5   68.6  30.104  0.00  0.00   495     7.10    513     1.2  0.09   1.2   0.024   0.000   74.6    55   57.4   75.0  10.06  .0736    0.000   204    7    100.0   10 
 6/14/21  6:20p   61.6   61.7   61.5    87   57.7  12.0     N   2.00  17.0     N   57.6   61.9   57.9   67.2  30.102  0.00  0.00   451     6.47    520     1.0  0.07   1.1   0.024   0.000   74.6    55   57.4   75.0  10.06  .0736    0.000   199    7    100.0   10 
 6/14/21  6:30p   60.9   61.6   60.9    87   57.0  11.0     N   1.83  17.0     N   57.4   61.2   57.7   61.6  30.102  0.00  0.00   171     2.45    353     0.7  0.05   0.9   0.028   0.000   74.2    54   56.5   74.4   9.87  .0736    0.000   197    7     99.5   10 
 6/14/21  6:40p   60.7   60.9   60.6    87   56.8  10.0     N   1.67  16.0     N   57.8   61.0   58.1   61.5  30.102  0.00  0.00   147     2.11    163     0.6  0.04   0.6   0.030   0.000   73.7    54   56.0   73.7   9.88  .0737    0.000   200    7    100.0   10 
 6/14/21  6:50p   60.7   60.8   60.6    87   56.8  10.0     N   1.67  16.0     N   57.8   61.0   58.1   61.0  30.104  0.00  0.00   126     1.81    134     0.5  0.04   0.6   0.030   0.000   73.5    55   56.3   73.6  10.08  .0738    0.000   201    7    100.0   10 
 6/14/21  7:00p   60.8   60.9   60.7    87   56.9  11.0     N   1.83  16.0     N   57.3   61.1   57.6   62.0  30.102  0.00  0.00   176     2.52    383     0.3  0.02   0.5   0.029   0.000   73.3    55   56.2   73.4  10.08  .0738    0.006   202    7    100.0   10 
 6/14/21  7:10p   60.5   60.8   60.5    87   56.6  10.0     N   1.67  17.0     N   57.6   60.7   57.8   61.6  30.101  0.00  0.00   147     2.11    267     0.0  0.00   0.0   0.031   0.000   73.4    55   56.2   73.5  10.08  .0738    0.000   203    7    100.0   10 
 6/14/21  7:20p   60.3   60.4   60.3    88   56.7  10.0     N   1.67  15.0     N   57.3   60.5   57.5   60.7  30.103  0.00  0.00   126     1.81    206     0.0  0.00   0.0   0.033   0.000   73.7    55   56.5   73.8  10.08  .0737    0.000   198    7    100.0   10 
 6/14/21  7:30p   60.1   60.3   60.1    88   56.5  10.0     N   1.67  14.0     N   57.1   60.3   57.3   58.8  30.104  0.00  0.00    76     1.09    199     0.0  0.00   0.0   0.034   0.000   73.8    55   56.6   74.0  10.07  .0737    0.000   201    7    100.0   10 
 6/14/21  7:40p   59.9   60.1   59.9    88   56.3  10.0     N   1.67  13.0     N   56.9   60.1   57.1   57.1  30.102  0.00  0.00    36     0.52     54     0.0  0.00   0.0   0.035   0.000   73.9    55   56.7   74.1  10.07  .0737    0.000   203    7    100.0   10 
 6/14/21  7:50p   59.7   59.9   59.7    89   56.5  11.0     N   1.83  16.0     N   56.0   59.9   56.2   55.4  30.103  0.00  0.00    60     0.86     69     0.0  0.00   0.0   0.037   0.000   74.0    55   56.8   74.2  10.07  .0737    0.000   201    7    100.0   10 
 6/14/21  8:00p   59.6   59.7   59.6    89   56.4   9.0     N   1.50  14.0     N   57.2   59.8   57.4   56.2  30.102  0.00  0.00    41     0.59     58     0.0  0.00   0.0   0.038   0.000   74.0    55   56.8   74.2  10.07  .0737    0.003   203    7    100.0   10 
 6/14/21  8:10p   59.6   59.6   59.5    89   56.4   9.0     N   1.50  14.0     N   57.2   59.8   57.4   56.0  30.102  0.00  0.00    35     0.50     53     0.0  0.00   0.0   0.038   0.000   74.1    55   56.9   74.3  10.07  .0736    0.000   204    7    100.0   10 
 6/14/21  8:20p   59.4   59.7   59.4    89   56.2   9.0     N   1.50  15.0     N   57.0   59.6   57.2   55.9  30.101  0.00  0.00    38     0.54     60     0.0  0.00   0.0   0.039   0.000   74.1    55   56.9   74.3  10.07  .0736    0.000   203    7    100.0   10 
 6/14/21  8:30p   59.1   59.5   59.1    90   56.2   8.0     N   1.33  13.0     N   57.4   59.3   57.6   55.8  30.102  0.00  0.00    17     0.24     21     0.0  0.00   0.0   0.041   0.000   74.1    55   56.9   74.3  10.07  .0736    0.000   202    7    100.0   10 
 6/14/21  8:40p   58.9   59.2   58.9    90   56.0   7.0     N   1.17  13.0     N   57.9   59.1   58.1   56.1  30.102  0.00  0.00    16     0.23     21     0.0  0.00   0.0   0.042   0.000   74.1    55   56.9   74.3  10.07  .0736    0.000   201    7    100.0   10 
 6/14/21  8:50p   58.8   58.9   58.8    90   55.9   4.0     N   0.67  14.0     N   58.8   59.0   59.0   57.0  30.103  0.00  0.00    13     0.19     19     0.0  0.00   0.0   0.043   0.000   74.1    55   56.9   74.3  10.07  .0736    0.000   204    7    100.0   10 
 6/14/21  9:00p   58.9   58.9   58.7    90   56.0   4.0     S   0.67   9.0     N   58.9   59.1   59.1   56.9  30.102  0.00  0.00     4     0.06      7     0.0  0.00   0.0   0.042   0.000   74.1    55   56.9   74.3  10.07  .0736    0.001   200    7    100.0   10 
 6/14/21  9:10p   58.9   59.0   58.9    90   56.0   4.0     N   0.67  10.0     N   58.9   59.1   59.1   56.8  30.104  0.00  0.00     0     0.00      0     0.0  0.00   0.0   0.042   0.000   74.1    55   56.9   74.3  10.07  .0736    0.000   203    7    100.0   10 
 6/14/21  9:20p   58.9   59.0   58.9    90   56.0   6.0     N   1.00  11.0     N   58.3   59.1   58.5   56.2  30.104  0.00  0.00     0     0.00      0     0.0  0.00   0.0   0.042   0.000   74.0    55   56.8   74.2  10.07  .0737    0.000   205    7    100.0   10 
 6/14/21  9:30p   58.8   59.0   58.8    89   55.6   8.0     N   1.33  14.0     N   57.1   58.9   57.2   55.0  30.106  0.00  0.00     0     0.00      0     0.0  0.00   0.0   0.043   0.000   74.0    55   56.8   74.2  10.07  .0737    0.000   201    7    100.0   10 
 6/14/21  9:40p   58.7   58.8   58.6    89   55.5   7.0     N   1.17  13.0     N   57.6   58.8   57.7   55.4  30.108  0.00  0.00     0     0.00      0     0.0  0.00   0.0   0.044   0.000   74.0    55   56.8   74.2  10.07  .0737    0.000   203    7    100.0   10 
 6/14/21  9:50p   58.7   58.8   58.6    89   55.5   3.0     S   0.50  11.0     N   58.7   58.8   58.8   56.5  30.112  0.00  0.00     0     0.00      0     0.0  0.00   0.0   0.044   0.000   73.9    55   56.7   74.1  10.07  .0737    0.000   204    7    100.0   10 
 6/14/21 10:00p   58.7   58.7   58.6    90   55.8   4.0   SSW   0.67  12.0     N   58.7   58.9   58.9   56.6  30.115  0.00  0.00     0     0.00      0     0.0  0.00   0.0   0.044   0.000   73.9    55   56.7   74.1  10.07  .0737    0.000   204    7    100.0   10 
 6/14/21 10:10p   58.7   58.8   58.7    89   55.5   5.0     N   0.83  10.0     N   58.4   58.8   58.5   56.2  30.113  0.00  0.00     0     0.00      0     0.0  0.00   0.0   0.044   0.000   73.9    55   56.7   74.1  10.07  .0737    0.000   202    7    100.0   10 
 6/14/21 10:20p   58.6   58.8   58.6    89   55.4   5.0     N   0.83   8.0     N   58.3   58.7   58.4   56.1  30.113  0.00  0.00     0     0.00      0     0.0  0.00   0.0   0.044   0.000   73.8    55   56.6   74.0  10.07  .0737    0.000   203    7    100.0   10 
 6/14/21 10:30p   58.7   58.9   58.6    91   56.1  12.0     N   2.00  19.0     N   54.3   58.9   54.5   52.6  30.112  0.00  0.00     0     0.00      0     0.0  0.00   0.0   0.044   0.000   73.8    55   56.6   74.0  10.07  .0737    0.000   201    7    100.0   10 
 6/14/21 10:40p   58.2   58.7   58.2    92   55.9  13.0     N   2.17  18.0     N   53.2   58.4   53.4   51.6  30.114  0.00  0.00     0     0.00      0     0.0  0.00   0.0   0.047   0.000   73.8    55   56.6   74.0  10.07  .0737    0.000   204    7    100.0   10 
 6/14/21 10:50p   57.6   58.2   57.6    93   55.6  14.0     N   2.33  21.0     N   52.2   57.8   52.4   50.6  30.117  0.00  0.00     0     0.00      0     0.0  0.00   0.0   0.051   0.000   73.7    55   56.5   73.8  10.08  .0737    0.000   199    7    100.0   10 
 6/14/21 11:00p   57.1   57.6   57.1    93   55.1  14.0     N   2.33  19.0     N   51.6   57.3   51.8   50.0  30.117  0.00  0.00     0     0.00      0     0.0  0.00   0.0   0.055   0.000   73.7    55   56.5   73.8  10.08  .0737    0.001   202    7    100.0   10 
 6/14/21 11:10p   57.2   57.3   57.1    94   55.5  11.0     N   1.83  17.0     N   53.1   57.4   53.3   51.3  30.117  0.00  0.00     0     0.00      0     0.0  0.00   0.0   0.054   0.000   73.6    56   56.9   73.8  10.28  .0737    0.000   202    7    100.0   10 
 6/14/21 11:20p   57.3   57.3   57.2    94   55.6   7.0     N   1.17  12.0     N   56.0   57.5   56.2   53.9  30.116  0.00  0.00     0     0.00      0     0.0  0.00   0.0   0.053   0.000   73.6    56   56.9   73.8  10.28  .0737    0.000   205    7    100.0   10 
 6/14/21 11:30p   57.2   57.3   57.2    94   55.5   6.0     N   1.00  11.0     N   56.2   57.4   56.4   54.1  30.116  0.00  0.00     0     0.00      0     0.0  0.00   0.0   0.054   0.000   73.6    56   56.9   73.8  10.28  .0737    0.000   201    7    100.0   10 
 6/14/21 11:40p   57.3   57.5   57.2    94   55.6   9.0     N   1.50  15.0     N   54.5   57.5   54.7   52.6  30.117  0.00  0.00     0     0.00      0     0.0  0.00   0.0   0.053   0.000   73.5    55   56.3   73.6  10.08  .0738    0.000   203    7    100.0   10 
 6/14/21 11:50p   57.4   57.5   57.3    94   55.7  11.0     N   1.83  17.0     N   53.3   57.6   53.5   51.5  30.115  0.00  0.00     0     0.00      0     0.0  0.00   0.0   0.053   0.000   73.5    55   56.3   73.6  10.08  .0738    0.000   200    7    100.0   10 
 6/15/21 12:00a   57.3   57.5   57.3    94   55.6  12.0     N   2.00  17.0     N   52.7   57.5   52.9   51.0  30.113  0.00  0.00     0     0.00      0     0.0  0.00   0.0   0.053   0.000   73.5    56   56.8   73.7  10.28  .0738    0.000   203    7    100.0   10 
Email: AdamSPAM@StormwatchersRetreat.com (To send me email remove the word 'SPAM' from my email address.)